sensor_id;sensor_type;location;lat;lon;timestamp;temperature;humidity
52899;DHT22;38763;53.096;6.062;2023-04-01T00:00:18;10.20;99.90
52899;DHT22;38763;53.096;6.062;2023-04-01T00:02:44;10.30;99.90
52899;DHT22;38763;53.096;6.062;2023-04-01T00:05:10;10.20;99.90
52899;DHT22;38763;53.096;6.062;2023-04-01T00:07:38;10.30;99.90
52899;DHT22;38763;53.096;6.062;2023-04-01T00:10:05;10.30;99.90
52899;DHT22;38763;53.096;6.062;2023-04-01T00:12:31;10.30;99.90
52899;DHT22;38763;53.096;6.062;2023-04-01T00:14:57;10.30;99.90
52899;DHT22;38763;53.096;6.062;2023-04-01T00:17:22;10.30;99.90
52899;DHT22;38763;53.096;6.062;2023-04-01T00:19:48;10.30;99.90
52899;DHT22;38763;53.096;6.062;2023-04-01T00:22:14;10.20;99.90
52899;DHT22;38763;53.096;6.062;2023-04-01T00:24:41;10.20;99.90
52899;DHT22;38763;53.096;6.062;2023-04-01T00:27:06;10.10;99.90
52899;DHT22;38763;53.096;6.062;2023-04-01T00:29:33;10.20;99.90
52899;DHT22;38763;53.096;6.062;2023-04-01T00:32:00;10.10;99.90
52899;DHT22;38763;53.096;6.062;2023-04-01T00:34:26;10.10;99.90
52899;DHT22;38763;53.096;6.062;2023-04-01T00:36:52;10.20;99.90
52899;DHT22;38763;53.096;6.062;2023-04-01T00:39:19;10.20;99.90
52899;DHT22;38763;53.096;6.062;2023-04-01T00:41:46;10.10;99.90
52899;DHT22;38763;53.096;6.062;2023-04-01T00:44:23;10.10;99.90
52899;DHT22;38763;53.096;6.062;2023-04-01T00:46:49;10.20;99.90
52899;DHT22;38763;53.096;6.062;2023-04-01T00:49:17;10.10;99.90
52899;DHT22;38763;53.096;6.062;2023-04-01T00:51:45;10.10;99.90
52899;DHT22;38763;53.096;6.062;2023-04-01T00:54:14;10.10;99.90
52899;DHT22;38763;53.096;6.062;2023-04-01T00:59:25;10.10;99.90
52899;DHT22;38763;53.096;6.062;2023-04-01T01:01:51;10.20;99.90
52899;DHT22;38763;53.096;6.062;2023-04-01T01:04:29;10.20;99.90
52899;DHT22;38763;53.096;6.062;2023-04-01T01:15:52;10.10;99.90
52899;DHT22;38763;53.096;6.062;2023-04-01T01:18:24;10.10;99.90
52899;DHT22;38763;53.096;6.062;2023-04-01T01:37:10;10.20;99.90
52899;DHT22;38763;53.096;6.062;2023-04-01T01:39:39;10.00;99.90
52899;DHT22;38763;53.096;6.062;2023-04-01T01:42:08;10.10;99.90
52899;DHT22;38763;53.096;6.062;2023-04-01T01:44:37;10.20;99.90
52899;DHT22;38763;53.096;6.062;2023-04-01T01:47:03;10.30;99.90
52899;DHT22;38763;53.096;6.062;2023-04-01T01:49:30;10.00;99.90
52899;DHT22;38763;53.096;6.062;2023-04-01T01:51:57;10.20;99.90
52899;DHT22;38763;53.096;6.062;2023-04-01T01:54:23;10.20;99.90
52899;DHT22;38763;53.096;6.062;2023-04-01T01:56:51;10.10;99.90
52899;DHT22;38763;53.096;6.062;2023-04-01T01:59:22;10.10;99.90
52899;DHT22;38763;53.096;6.062;2023-04-01T02:01:52;10.20;99.90
52899;DHT22;38763;53.096;6.062;2023-04-01T02:04:21;10.20;99.90
52899;DHT22;38763;53.096;6.062;2023-04-01T02:06:58;10.10;99.90
52899;DHT22;38763;53.096;6.062;2023-04-01T02:09:26;10.30;99.90
52899;DHT22;38763;53.096;6.062;2023-04-01T02:11:57;10.10;99.90
52899;DHT22;38763;53.096;6.062;2023-04-01T02:14:29;10.20;99.90
52899;DHT22;38763;53.096;6.062;2023-04-01T02:17:00;10.20;99.90
52899;DHT22;38763;53.096;6.062;2023-04-01T02:19:37;10.00;99.90
52899;DHT22;38763;53.096;6.062;2023-04-01T02:22:05;10.20;99.90
52899;DHT22;38763;53.096;6.062;2023-04-01T02:24:35;10.20;99.90
52899;DHT22;38763;53.096;6.062;2023-04-01T02:27:01;10.20;99.90
52899;DHT22;38763;53.096;6.062;2023-04-01T02:29:27;10.10;99.90
52899;DHT22;38763;53.096;6.062;2023-04-01T02:31:53;10.00;99.90
52899;DHT22;38763;53.096;6.062;2023-04-01T02:34:21;10.10;99.90
52899;DHT22;38763;53.096;6.062;2023-04-01T02:36:48;10.00;99.90
52899;DHT22;38763;53.096;6.062;2023-04-01T02:39:14;10.00;99.90
52899;DHT22;38763;53.096;6.062;2023-04-01T02:41:42;10.00;99.90
52899;DHT22;38763;53.096;6.062;2023-04-01T02:44:09;9.90;99.90
52899;DHT22;38763;53.096;6.062;2023-04-01T02:46:35;9.90;99.90
52899;DHT22;38763;53.096;6.062;2023-04-01T02:49:01;9.90;99.90
52899;DHT22;38763;53.096;6.062;2023-04-01T02:51:27;10.00;99.90
52899;DHT22;38763;53.096;6.062;2023-04-01T02:53:53;9.90;99.90
52899;DHT22;38763;53.096;6.062;2023-04-01T02:56:18;10.00;99.90
52899;DHT22;38763;53.096;6.062;2023-04-01T02:58:45;9.90;99.90
52899;DHT22;38763;53.096;6.062;2023-04-01T03:01:11;10.00;99.90
52899;DHT22;38763;53.096;6.062;2023-04-01T03:03:37;10.00;99.90
52899;DHT22;38763;53.096;6.062;2023-04-01T03:06:07;9.90;99.90
52899;DHT22;38763;53.096;6.062;2023-04-01T03:08:33;10.00;99.90
52899;DHT22;38763;53.096;6.062;2023-04-01T03:10:59;10.00;99.90
52899;DHT22;38763;53.096;6.062;2023-04-01T03:13:25;9.80;99.90
52899;DHT22;38763;53.096;6.062;2023-04-01T03:15:51;10.10;99.90
52899;DHT22;38763;53.096;6.062;2023-04-01T03:18:17;10.00;99.90
52899;DHT22;38763;53.096;6.062;2023-04-01T03:20:42;9.90;99.90
52899;DHT22;38763;53.096;6.062;2023-04-01T03:23:08;9.90;99.90
52899;DHT22;38763;53.096;6.062;2023-04-01T03:25:34;10.00;99.90
52899;DHT22;38763;53.096;6.062;2023-04-01T03:28:00;9.90;99.90
52899;DHT22;38763;53.096;6.062;2023-04-01T03:30:26;9.90;99.90
52899;DHT22;38763;53.096;6.062;2023-04-01T03:32:52;10.10;99.90
52899;DHT22;38763;53.096;6.062;2023-04-01T03:35:18;9.90;99.90
52899;DHT22;38763;53.096;6.062;2023-04-01T03:37:44;9.90;99.90
52899;DHT22;38763;53.096;6.062;2023-04-01T03:40:10;10.00;99.90
52899;DHT22;38763;53.096;6.062;2023-04-01T03:42:36;10.00;99.90
52899;DHT22;38763;53.096;6.062;2023-04-01T03:45:03;10.00;99.90
52899;DHT22;38763;53.096;6.062;2023-04-01T03:47:29;10.10;99.90
52899;DHT22;38763;53.096;6.062;2023-04-01T03:49:55;9.90;99.90
52899;DHT22;38763;53.096;6.062;2023-04-01T03:52:21;9.90;99.90
52899;DHT22;38763;53.096;6.062;2023-04-01T03:54:46;10.10;99.90
52899;DHT22;38763;53.096;6.062;2023-04-01T03:57:12;10.00;99.90
52899;DHT22;38763;53.096;6.062;2023-04-01T03:59:38;9.90;99.90
52899;DHT22;38763;53.096;6.062;2023-04-01T04:02:03;10.10;99.90
52899;DHT22;38763;53.096;6.062;2023-04-01T04:04:29;10.00;99.90
52899;DHT22;38763;53.096;6.062;2023-04-01T04:06:55;9.90;99.90
52899;DHT22;38763;53.096;6.062;2023-04-01T04:09:22;10.00;99.90
52899;DHT22;38763;53.096;6.062;2023-04-01T04:11:48;10.00;99.90
52899;DHT22;38763;53.096;6.062;2023-04-01T04:14:14;10.00;99.90
52899;DHT22;38763;53.096;6.062;2023-04-01T04:16:39;10.00;99.90
52899;DHT22;38763;53.096;6.062;2023-04-01T04:19:05;9.90;99.90
52899;DHT22;38763;53.096;6.062;2023-04-01T04:21:31;10.10;99.90
52899;DHT22;38763;53.096;6.062;2023-04-01T04:23:58;9.90;99.90
52899;DHT22;38763;53.096;6.062;2023-04-01T04:26:24;10.00;99.90
52899;DHT22;38763;53.096;6.062;2023-04-01T04:28:49;10.10;99.90
52899;DHT22;38763;53.096;6.062;2023-04-01T04:31:22;10.00;99.90
52899;DHT22;38763;53.096;6.062;2023-04-01T04:33:49;10.00;99.90
52899;DHT22;38763;53.096;6.062;2023-04-01T04:36:14;10.00;99.90
52899;DHT22;38763;53.096;6.062;2023-04-01T04:38:40;10.00;99.90
52899;DHT22;38763;53.096;6.062;2023-04-01T04:41:10;9.80;99.90
52899;DHT22;38763;53.096;6.062;2023-04-01T04:43:38;9.90;99.90
52899;DHT22;38763;53.096;6.062;2023-04-01T04:46:08;9.90;99.90
52899;DHT22;38763;53.096;6.062;2023-04-01T04:48:34;10.10;99.90
52899;DHT22;38763;53.096;6.062;2023-04-01T04:51:00;10.00;99.90
52899;DHT22;38763;53.096;6.062;2023-04-01T04:53:27;10.00;99.90
52899;DHT22;38763;53.096;6.062;2023-04-01T04:55:53;9.90;99.90
52899;DHT22;38763;53.096;6.062;2023-04-01T04:58:18;10.00;99.90
52899;DHT22;38763;53.096;6.062;2023-04-01T05:00:45;9.90;99.90
52899;DHT22;38763;53.096;6.062;2023-04-01T05:03:11;10.00;99.90
52899;DHT22;38763;53.096;6.062;2023-04-01T05:05:37;9.90;99.90
52899;DHT22;38763;53.096;6.062;2023-04-01T05:08:03;10.00;99.90
52899;DHT22;38763;53.096;6.062;2023-04-01T05:10:30;10.00;99.90
52899;DHT22;38763;53.096;6.062;2023-04-01T05:12:57;9.90;99.90
52899;DHT22;38763;53.096;6.062;2023-04-01T05:15:23;9.90;99.90
52899;DHT22;38763;53.096;6.062;2023-04-01T05:17:49;9.90;99.90
52899;DHT22;38763;53.096;6.062;2023-04-01T05:20:15;10.00;99.90
52899;DHT22;38763;53.096;6.062;2023-04-01T05:22:42;10.00;99.90
52899;DHT22;38763;53.096;6.062;2023-04-01T05:25:08;9.80;99.90
52899;DHT22;38763;53.096;6.062;2023-04-01T05:27:34;9.90;99.90
52899;DHT22;38763;53.096;6.062;2023-04-01T05:30:00;10.00;99.90
52899;DHT22;38763;53.096;6.062;2023-04-01T05:32:26;10.10;99.90
52899;DHT22;38763;53.096;6.062;2023-04-01T05:34:52;9.90;99.90
52899;DHT22;38763;53.096;6.062;2023-04-01T05:37:18;10.00;99.90
52899;DHT22;38763;53.096;6.062;2023-04-01T05:39:44;10.00;99.90
52899;DHT22;38763;53.096;6.062;2023-04-01T05:42:10;10.00;99.90
52899;DHT22;38763;53.096;6.062;2023-04-01T05:44:36;10.00;99.90
52899;DHT22;38763;53.096;6.062;2023-04-01T05:47:03;10.00;99.90
52899;DHT22;38763;53.096;6.062;2023-04-01T05:49:29;10.00;99.90
52899;DHT22;38763;53.096;6.062;2023-04-01T05:51:55;10.00;99.90
52899;DHT22;38763;53.096;6.062;2023-04-01T05:54:21;10.00;99.90
52899;DHT22;38763;53.096;6.062;2023-04-01T05:56:46;10.00;99.90
52899;DHT22;38763;53.096;6.062;2023-04-01T05:59:12;9.90;99.90
52899;DHT22;38763;53.096;6.062;2023-04-01T06:01:38;10.00;99.90
52899;DHT22;38763;53.096;6.062;2023-04-01T06:04:04;9.90;99.90
52899;DHT22;38763;53.096;6.062;2023-04-01T06:06:31;10.00;99.90
52899;DHT22;38763;53.096;6.062;2023-04-01T06:09:06;9.90;99.90
52899;DHT22;38763;53.096;6.062;2023-04-01T06:15:01;10.00;99.90
52899;DHT22;38763;53.096;6.062;2023-04-01T06:20:49;9.90;99.90
52899;DHT22;38763;53.096;6.062;2023-04-01T06:33:46;10.10;99.90
52899;DHT22;38763;53.096;6.062;2023-04-01T06:39:05;10.00;99.90
52899;DHT22;38763;53.096;6.062;2023-04-01T06:52:58;10.10;99.90
52899;DHT22;38763;53.096;6.062;2023-04-01T06:55:53;10.10;99.90
52899;DHT22;38763;53.096;6.062;2023-04-01T06:58:29;10.10;99.90
52899;DHT22;38763;53.096;6.062;2023-04-01T07:01:02;10.20;99.90
52899;DHT22;38763;53.096;6.062;2023-04-01T07:03:34;10.20;99.90
52899;DHT22;38763;53.096;6.062;2023-04-01T07:06:04;10.10;99.90
52899;DHT22;38763;53.096;6.062;2023-04-01T07:08:35;10.10;99.90
52899;DHT22;38763;53.096;6.062;2023-04-01T07:11:06;10.20;99.90
52899;DHT22;38763;53.096;6.062;2023-04-01T07:13:54;10.10;99.90
52899;DHT22;38763;53.096;6.062;2023-04-01T07:16:32;10.30;99.90
52899;DHT22;38763;53.096;6.062;2023-04-01T07:24:51;10.30;99.90
52899;DHT22;38763;53.096;6.062;2023-04-01T07:27:19;10.30;99.90
52899;DHT22;38763;53.096;6.062;2023-04-01T07:29:44;10.10;99.90
52899;DHT22;38763;53.096;6.062;2023-04-01T07:32:23;10.20;99.90
52899;DHT22;38763;53.096;6.062;2023-04-01T07:35:01;10.20;99.90
52899;DHT22;38763;53.096;6.062;2023-04-01T07:37:42;10.10;99.90
52899;DHT22;38763;53.096;6.062;2023-04-01T07:40:35;10.10;99.90
52899;DHT22;38763;53.096;6.062;2023-04-01T07:45:56;10.30;99.90
52899;DHT22;38763;53.096;6.062;2023-04-01T07:48:50;10.40;99.90
52899;DHT22;38763;53.096;6.062;2023-04-01T07:51:33;10.40;99.90
52899;DHT22;38763;53.096;6.062;2023-04-01T07:54:25;10.50;99.90
52899;DHT22;38763;53.096;6.062;2023-04-01T07:56:57;10.80;99.90
52899;DHT22;38763;53.096;6.062;2023-04-01T07:59:45;10.80;99.90
52899;DHT22;38763;53.096;6.062;2023-04-01T08:05:17;10.70;99.90
52899;DHT22;38763;53.096;6.062;2023-04-01T08:10:45;10.70;99.90
52899;DHT22;38763;53.096;6.062;2023-04-01T08:22:07;11.00;99.90
52899;DHT22;38763;53.096;6.062;2023-04-01T08:24:39;11.00;99.90
52899;DHT22;38763;53.096;6.062;2023-04-01T08:27:14;11.10;99.90
52899;DHT22;38763;53.096;6.062;2023-04-01T08:29:53;11.10;99.90
52899;DHT22;38763;53.096;6.062;2023-04-01T08:32:25;11.10;99.90
52899;DHT22;38763;53.096;6.062;2023-04-01T08:35:21;11.10;99.90
52899;DHT22;38763;53.096;6.062;2023-04-01T08:37:50;11.20;99.90
52899;DHT22;38763;53.096;6.062;2023-04-01T08:45:55;11.20;99.90
52899;DHT22;38763;53.096;6.062;2023-04-01T08:51:14;11.30;99.90
52899;DHT22;38763;53.096;6.062;2023-04-01T08:54:09;11.40;99.90
52899;DHT22;38763;53.096;6.062;2023-04-01T08:56:54;11.30;99.90
52899;DHT22;38763;53.096;6.062;2023-04-01T09:02:34;11.50;99.90
52899;DHT22;38763;53.096;6.062;2023-04-01T09:05:34;11.50;99.90
52899;DHT22;38763;53.096;6.062;2023-04-01T09:08:51;11.50;99.90
52899;DHT22;38763;53.096;6.062;2023-04-01T09:16:24;11.50;99.90
52899;DHT22;38763;53.096;6.062;2023-04-01T09:19:15;11.50;99.90
52899;DHT22;38763;53.096;6.062;2023-04-01T09:34:05;11.40;99.90
52899;DHT22;38763;53.096;6.062;2023-04-01T09:39:34;11.20;99.90
52899;DHT22;38763;53.096;6.062;2023-04-01T09:42:21;11.00;99.90
52899;DHT22;38763;53.096;6.062;2023-04-01T09:45:00;11.00;99.90
52899;DHT22;38763;53.096;6.062;2023-04-01T09:53:07;10.80;99.90
52899;DHT22;38763;53.096;6.062;2023-04-01T09:58:56;10.90;99.90
52899;DHT22;38763;53.096;6.062;2023-04-01T10:01:47;11.00;99.90
52899;DHT22;38763;53.096;6.062;2023-04-01T10:26:28;10.60;99.90
52899;DHT22;38763;53.096;6.062;2023-04-01T10:29:32;10.70;99.90
52899;DHT22;38763;53.096;6.062;2023-04-01T10:40:20;10.50;99.90
52899;DHT22;38763;53.096;6.062;2023-04-01T11:03:01;10.40;99.90
52899;DHT22;38763;53.096;6.062;2023-04-01T11:05:35;10.50;99.90
52899;DHT22;38763;53.096;6.062;2023-04-01T11:25:10;10.30;99.90
52899;DHT22;38763;53.096;6.062;2023-04-01T11:36:11;10.50;99.90
52899;DHT22;38763;53.096;6.062;2023-04-01T11:44:18;10.60;99.90
52899;DHT22;38763;53.096;6.062;2023-04-01T11:55:05;10.80;99.90
52899;DHT22;38763;53.096;6.062;2023-04-01T12:03:05;10.80;99.90
52899;DHT22;38763;53.096;6.062;2023-04-01T12:06:02;10.90;99.90
52899;DHT22;38763;53.096;6.062;2023-04-01T12:09:07;10.80;99.90
52899;DHT22;38763;53.096;6.062;2023-04-01T12:14:11;10.80;99.90
52899;DHT22;38763;53.096;6.062;2023-04-01T12:19:51;10.70;99.90
52899;DHT22;38763;53.096;6.062;2023-04-01T12:22:55;10.70;99.90
52899;DHT22;38763;53.096;6.062;2023-04-01T12:50:36;10.40;99.90
52899;DHT22;38763;53.096;6.062;2023-04-01T12:55:50;10.40;99.90
52899;DHT22;38763;53.096;6.062;2023-04-01T13:06:38;10.20;99.90
52899;DHT22;38763;53.096;6.062;2023-04-01T13:09:36;10.20;99.90
52899;DHT22;38763;53.096;6.062;2023-04-01T13:17:47;10.40;99.90
52899;DHT22;38763;53.096;6.062;2023-04-01T13:28:53;10.40;99.90
52899;DHT22;38763;53.096;6.062;2023-04-01T13:31:38;10.50;99.90
52899;DHT22;38763;53.096;6.062;2023-04-01T13:42:28;10.50;99.90
52899;DHT22;38763;53.096;6.062;2023-04-01T13:47:45;10.50;99.90
52899;DHT22;38763;53.096;6.062;2023-04-01T14:01:31;10.30;99.90
52899;DHT22;38763;53.096;6.062;2023-04-01T14:07:38;10.20;99.90
52899;DHT22;38763;53.096;6.062;2023-04-01T14:10:31;10.10;99.90
52899;DHT22;38763;53.096;6.062;2023-04-01T14:13:31;10.20;99.90
52899;DHT22;38763;53.096;6.062;2023-04-01T14:16:11;10.10;99.90
52899;DHT22;38763;53.096;6.062;2023-04-01T14:18:47;10.10;99.90
52899;DHT22;38763;53.096;6.062;2023-04-01T14:29:36;10.00;99.90
52899;DHT22;38763;53.096;6.062;2023-04-01T14:51:21;9.90;99.90
52899;DHT22;38763;53.096;6.062;2023-04-01T14:54:06;9.90;99.90
52899;DHT22;38763;53.096;6.062;2023-04-01T14:59:31;9.60;99.90
52899;DHT22;38763;53.096;6.062;2023-04-01T15:02:31;9.60;99.90
52899;DHT22;38763;53.096;6.062;2023-04-01T15:08:01;9.60;99.90
52899;DHT22;38763;53.096;6.062;2023-04-01T15:13:38;9.50;99.90
52899;DHT22;38763;53.096;6.062;2023-04-01T15:32:49;9.50;99.90
52899;DHT22;38763;53.096;6.062;2023-04-01T15:40:38;9.30;99.90
52899;DHT22;38763;53.096;6.062;2023-04-01T15:46:36;9.30;99.90
52899;DHT22;38763;53.096;6.062;2023-04-01T15:51:48;9.10;99.90
52899;DHT22;38763;53.096;6.062;2023-04-01T16:02:39;9.00;99.90
52899;DHT22;38763;53.096;6.062;2023-04-01T16:05:35;8.90;99.90
52899;DHT22;38763;53.096;6.062;2023-04-01T16:22:07;8.50;99.90
52899;DHT22;38763;53.096;6.062;2023-04-01T16:27:35;8.50;99.90
52899;DHT22;38763;53.096;6.062;2023-04-01T16:30:35;8.50;99.90
52899;DHT22;38763;53.096;6.062;2023-04-01T16:33:14;8.40;99.90
52899;DHT22;38763;53.096;6.062;2023-04-01T16:36:12;8.40;99.90
52899;DHT22;38763;53.096;6.062;2023-04-01T16:41:26;8.30;99.90
52899;DHT22;38763;53.096;6.062;2023-04-01T16:47:06;8.30;99.90
52899;DHT22;38763;53.096;6.062;2023-04-01T16:49:53;8.30;99.90
52899;DHT22;38763;53.096;6.062;2023-04-01T16:52:48;8.30;99.90
52899;DHT22;38763;53.096;6.062;2023-04-01T16:55:21;8.20;99.90
52899;DHT22;38763;53.096;6.062;2023-04-01T16:58:00;8.20;99.90
52899;DHT22;38763;53.096;6.062;2023-04-01T17:00:36;8.20;99.90
52899;DHT22;38763;53.096;6.062;2023-04-01T17:08:22;8.10;99.90
52899;DHT22;38763;53.096;6.062;2023-04-01T17:10:56;8.10;99.90
52899;DHT22;38763;53.096;6.062;2023-04-01T17:14:14;8.10;99.90
52899;DHT22;38763;53.096;6.062;2023-04-01T17:19:45;7.90;99.90
52899;DHT22;38763;53.096;6.062;2023-04-01T17:22:25;7.80;99.90
52899;DHT22;38763;53.096;6.062;2023-04-01T17:25:05;7.80;99.90
52899;DHT22;38763;53.096;6.062;2023-04-01T17:37:00;7.70;99.90
52899;DHT22;38763;53.096;6.062;2023-04-01T17:42:40;7.60;99.90
52899;DHT22;38763;53.096;6.062;2023-04-01T17:54:00;7.50;99.90
52899;DHT22;38763;53.096;6.062;2023-04-01T17:59:28;7.50;99.90
52899;DHT22;38763;53.096;6.062;2023-04-01T18:08:12;7.50;99.90
52899;DHT22;38763;53.096;6.062;2023-04-01T18:21:54;7.30;99.90
52899;DHT22;38763;53.096;6.062;2023-04-01T18:24:35;7.30;99.90
52899;DHT22;38763;53.096;6.062;2023-04-01T18:27:17;7.20;99.90
52899;DHT22;38763;53.096;6.062;2023-04-01T18:29:55;7.30;99.90
52899;DHT22;38763;53.096;6.062;2023-04-01T18:32:35;7.20;99.90
52899;DHT22;38763;53.096;6.062;2023-04-01T18:38:00;7.10;99.90
52899;DHT22;38763;53.096;6.062;2023-04-01T18:40:36;7.10;99.90
52899;DHT22;38763;53.096;6.062;2023-04-01T18:46:01;7.10;99.90
52899;DHT22;38763;53.096;6.062;2023-04-01T18:49:05;7.10;99.90
52899;DHT22;38763;53.096;6.062;2023-04-01T18:51:36;7.10;99.90
52899;DHT22;38763;53.096;6.062;2023-04-01T18:54:19;7.10;99.90
52899;DHT22;38763;53.096;6.062;2023-04-01T18:56:47;7.10;99.90
52899;DHT22;38763;53.096;6.062;2023-04-01T18:59:32;7.00;99.90
52899;DHT22;38763;53.096;6.062;2023-04-01T19:04:41;7.10;99.90
52899;DHT22;38763;53.096;6.062;2023-04-01T19:07:50;7.00;99.90
52899;DHT22;38763;53.096;6.062;2023-04-01T19:10:48;7.00;99.90
52899;DHT22;38763;53.096;6.062;2023-04-01T19:16:00;6.90;99.90
52899;DHT22;38763;53.096;6.062;2023-04-01T19:19:12;6.90;99.90
52899;DHT22;38763;53.096;6.062;2023-04-01T19:21:44;6.90;99.90
52899;DHT22;38763;53.096;6.062;2023-04-01T19:38:26;6.80;99.90
52899;DHT22;38763;53.096;6.062;2023-04-01T19:51:56;6.60;99.90
52899;DHT22;38763;53.096;6.062;2023-04-01T20:03:01;6.50;99.90
52899;DHT22;38763;53.096;6.062;2023-04-01T20:05:49;6.50;99.90
52899;DHT22;38763;53.096;6.062;2023-04-01T20:08:39;6.60;99.90
52899;DHT22;38763;53.096;6.062;2023-04-01T20:11:13;6.50;99.90
52899;DHT22;38763;53.096;6.062;2023-04-01T20:21:57;6.40;99.90
52899;DHT22;38763;53.096;6.062;2023-04-01T20:24:45;6.40;99.90
52899;DHT22;38763;53.096;6.062;2023-04-01T20:27:22;6.50;99.90
52899;DHT22;38763;53.096;6.062;2023-04-01T20:35:50;6.30;99.90
52899;DHT22;38763;53.096;6.062;2023-04-01T20:44:08;6.20;99.90
52899;DHT22;38763;53.096;6.062;2023-04-01T20:46:52;6.20;99.90
52899;DHT22;38763;53.096;6.062;2023-04-01T20:49:38;6.20;99.90
52899;DHT22;38763;53.096;6.062;2023-04-01T20:52:18;6.20;99.90
52899;DHT22;38763;53.096;6.062;2023-04-01T20:57:32;6.20;99.90
52899;DHT22;38763;53.096;6.062;2023-04-01T21:00:03;6.10;99.90
52899;DHT22;38763;53.096;6.062;2023-04-01T21:05:20;6.10;99.90
52899;DHT22;38763;53.096;6.062;2023-04-01T21:16:37;6.00;99.90
52899;DHT22;38763;53.096;6.062;2023-04-01T21:21:46;6.00;99.90
52899;DHT22;38763;53.096;6.062;2023-04-01T21:24:41;6.00;99.90
52899;DHT22;38763;53.096;6.062;2023-04-01T21:27:24;6.00;99.90
52899;DHT22;38763;53.096;6.062;2023-04-01T21:33:08;5.90;99.90
52899;DHT22;38763;53.096;6.062;2023-04-01T21:44:45;5.90;99.90
52899;DHT22;38763;53.096;6.062;2023-04-01T21:50:02;5.90;99.90
52899;DHT22;38763;53.096;6.062;2023-04-01T22:06:33;5.80;99.90
52899;DHT22;38763;53.096;6.062;2023-04-01T22:09:11;5.80;99.90
52899;DHT22;38763;53.096;6.062;2023-04-01T22:11:48;5.80;99.90
52899;DHT22;38763;53.096;6.062;2023-04-01T22:14:24;5.80;99.90
52899;DHT22;38763;53.096;6.062;2023-04-01T22:27:31;5.70;99.90
52899;DHT22;38763;53.096;6.062;2023-04-01T22:30:24;5.70;99.90
52899;DHT22;38763;53.096;6.062;2023-04-01T22:33:29;5.70;99.90
52899;DHT22;38763;53.096;6.062;2023-04-01T22:43:59;5.60;99.90
52899;DHT22;38763;53.096;6.062;2023-04-01T22:49:45;5.60;99.90
52899;DHT22;38763;53.096;6.062;2023-04-01T22:52:33;5.50;99.90
52899;DHT22;38763;53.096;6.062;2023-04-01T22:55:25;5.50;99.90
52899;DHT22;38763;53.096;6.062;2023-04-01T22:58:02;5.50;99.90
52899;DHT22;38763;53.096;6.062;2023-04-01T23:00:47;5.40;99.90
52899;DHT22;38763;53.096;6.062;2023-04-01T23:05:52;5.50;99.90
52899;DHT22;38763;53.096;6.062;2023-04-01T23:11:51;5.40;99.90
52899;DHT22;38763;53.096;6.062;2023-04-01T23:19:34;5.20;99.90
52899;DHT22;38763;53.096;6.062;2023-04-01T23:27:51;5.10;99.90
52899;DHT22;38763;53.096;6.062;2023-04-01T23:35:52;5.00;99.90
52899;DHT22;38763;53.096;6.062;2023-04-01T23:38:24;4.90;99.90
52899;DHT22;38763;53.096;6.062;2023-04-01T23:40:52;5.00;99.90
52899;DHT22;38763;53.096;6.062;2023-04-01T23:43:54;4.90;99.90
52899;DHT22;38763;53.096;6.062;2023-04-01T23:46:21;4.90;99.90
52899;DHT22;38763;53.096;6.062;2023-04-01T23:48:47;4.80;99.90
52899;DHT22;38763;53.096;6.062;2023-04-01T23:51:37;4.80;99.90
52899;DHT22;38763;53.096;6.062;2023-04-01T23:54:15;4.80;99.90
52899;DHT22;38763;53.096;6.062;2023-04-01T23:56:53;4.90;99.90
52899;DHT22;38763;53.096;6.062;2023-04-01T23:59:30;4.80;99.90
